<?xml version="1.0" encoding="utf-8"?>
<gpx xmlns:xsi="http://www.w3.org/2001/XMLSchema-instance" xmlns:xsd="http://www.w3.org/2001/XMLSchema" version="1.1" creator="Shapelink.com" xmlns="http://www.topografix.com/GPX/1/1" xmlns:gpxtpx="http://www.garmin.com/xmlschemas/TrackPointExtension/v1">
  <metadata>
    <name>Cycling 20.22 km, 2020-06-13</name>
    <desc></desc>
    <author><name>Marian Moron</name></author> 
    <time>2020-06-13T12:48:39Z</time>
  </metadata>
  <trk>
    <name>Cycling 20.22 km, 2020-06-13</name>
    <trkseg>
      <trkpt lat="51.228964632934" lon="4.448414559187">
        <ele>1.2</ele>
        <time>2020-06-13T12:48:39Z</time>
      </trkpt>
      <trkpt lat="51.228593147126" lon="4.447761106263">
        <ele>0</ele>
        <time>2020-06-13T12:49:00Z</time>
      </trkpt>
      <trkpt lat="51.228203556414" lon="4.447216618039">
        <ele>0</ele>
        <time>2020-06-13T12:49:21Z</time>
      </trkpt>
      <trkpt lat="51.22814521839" lon="4.44720815232">
        <ele>0</ele>
        <time>2020-06-13T12:49:28Z</time>
      </trkpt>
      <trkpt lat="51.228117139025" lon="4.44712433332">
        <ele>0</ele>
        <time>2020-06-13T12:49:35Z</time>
      </trkpt>
      <trkpt lat="51.227722519173" lon="4.447721627514">
        <ele>0</ele>
        <time>2020-06-13T12:49:59Z</time>
      </trkpt>
      <trkpt lat="51.227339382524" lon="4.448316071862">
        <ele>0</ele>
        <time>2020-06-13T12:50:23Z</time>
      </trkpt>
      <trkpt lat="51.226943673025" lon="4.448905067975">
        <ele>0</ele>
        <time>2020-06-13T12:50:45Z</time>
      </trkpt>
      <trkpt lat="51.226859937844" lon="4.448973548098">
        <ele>0</ele>
        <time>2020-06-13T12:50:54Z</time>
      </trkpt>
      <trkpt lat="51.22685524398" lon="4.448977822867">
        <ele>0</ele>
        <time>2020-06-13T12:51:00Z</time>
      </trkpt>
      <trkpt lat="51.226837306714" lon="4.44900104073">
        <ele>0</ele>
        <time>2020-06-13T12:51:04Z</time>
      </trkpt>
      <trkpt lat="51.226637146942" lon="4.449270183539">
        <ele>0</ele>
        <time>2020-06-13T12:51:15Z</time>
      </trkpt>
      <trkpt lat="51.226243113823" lon="4.448832480721">
        <ele>0</ele>
        <time>2020-06-13T12:51:31Z</time>
      </trkpt>
      <trkpt lat="51.225913286058" lon="4.449507056033">
        <ele>0</ele>
        <time>2020-06-13T12:51:47Z</time>
      </trkpt>
      <trkpt lat="51.225398805036" lon="4.449753316255">
        <ele>0</ele>
        <time>2020-06-13T12:52:05Z</time>
      </trkpt>
      <trkpt lat="51.224884240195" lon="4.450096638879">
        <ele>0</ele>
        <time>2020-06-13T12:52:24Z</time>
      </trkpt>
      <trkpt lat="51.224485764669" lon="4.450679683843">
        <ele>0</ele>
        <time>2020-06-13T12:52:42Z</time>
      </trkpt>
      <trkpt lat="51.224074297198" lon="4.451268009404">
        <ele>0</ele>
        <time>2020-06-13T12:53:06Z</time>
      </trkpt>
      <trkpt lat="51.223544477299" lon="4.45132785617">
        <ele>0</ele>
        <time>2020-06-13T12:53:27Z</time>
      </trkpt>
      <trkpt lat="51.223005269672" lon="4.451140353067">
        <ele>0</ele>
        <time>2020-06-13T12:53:48Z</time>
      </trkpt>
      <trkpt lat="51.222461452" lon="4.451123673086">
        <ele>0</ele>
        <time>2020-06-13T12:54:10Z</time>
      </trkpt>
      <trkpt lat="51.22191998126" lon="4.451343949418">
        <ele>0</ele>
        <time>2020-06-13T12:54:32Z</time>
      </trkpt>
      <trkpt lat="51.221415642337" lon="4.451649385854">
        <ele>0</ele>
        <time>2020-06-13T12:54:54Z</time>
      </trkpt>
      <trkpt lat="51.22086972919" lon="4.451802690805">
        <ele>0</ele>
        <time>2020-06-13T12:55:14Z</time>
      </trkpt>
      <trkpt lat="51.220309399175" lon="4.451962366">
        <ele>0</ele>
        <time>2020-06-13T12:55:30Z</time>
      </trkpt>
      <trkpt lat="51.219753679205" lon="4.452065798646">
        <ele>0</ele>
        <time>2020-06-13T12:55:47Z</time>
      </trkpt>
      <trkpt lat="51.219210615904" lon="4.452173925156">
        <ele>11</ele>
        <time>2020-06-13T12:56:02Z</time>
      </trkpt>
      <trkpt lat="51.21895446504" lon="4.452076108383">
        <ele>9</ele>
        <time>2020-06-13T12:56:09Z</time>
      </trkpt>
      <trkpt lat="51.218810631636" lon="4.451871506204">
        <ele>6.6</ele>
        <time>2020-06-13T12:56:13Z</time>
      </trkpt>
      <trkpt lat="51.218445096977" lon="4.451770001395">
        <ele>2.4</ele>
        <time>2020-06-13T12:56:21Z</time>
      </trkpt>
      <trkpt lat="51.218211493424" lon="4.452452874788">
        <ele>0</ele>
        <time>2020-06-13T12:56:41Z</time>
      </trkpt>
      <trkpt lat="51.218190287217" lon="4.453316797221">
        <ele>0</ele>
        <time>2020-06-13T12:56:58Z</time>
      </trkpt>
      <trkpt lat="51.21817075739" lon="4.454186586984">
        <ele>0</ele>
        <time>2020-06-13T12:57:14Z</time>
      </trkpt>
      <trkpt lat="51.218141001645" lon="4.455077163859">
        <ele>0</ele>
        <time>2020-06-13T12:57:30Z</time>
      </trkpt>
      <trkpt lat="51.218064223441" lon="4.455975284444">
        <ele>0</ele>
        <time>2020-06-13T12:57:48Z</time>
      </trkpt>
      <trkpt lat="51.218045950899" lon="4.456856808867">
        <ele>0</ele>
        <time>2020-06-13T12:58:04Z</time>
      </trkpt>
      <trkpt lat="51.218001359191" lon="4.457751157597">
        <ele>0</ele>
        <time>2020-06-13T12:58:23Z</time>
      </trkpt>
      <trkpt lat="51.217943943176" lon="4.458641483015">
        <ele>0</ele>
        <time>2020-06-13T12:58:38Z</time>
      </trkpt>
      <trkpt lat="51.217927598471" lon="4.459532981899">
        <ele>0</ele>
        <time>2020-06-13T12:58:56Z</time>
      </trkpt>
      <trkpt lat="51.21788242003" lon="4.460428671733">
        <ele>0</ele>
        <time>2020-06-13T12:59:13Z</time>
      </trkpt>
      <trkpt lat="51.217839504702" lon="4.461325451214">
        <ele>0</ele>
        <time>2020-06-13T12:59:30Z</time>
      </trkpt>
      <trkpt lat="51.217783429791" lon="4.462184009231">
        <ele>0</ele>
        <time>2020-06-13T12:59:48Z</time>
      </trkpt>
      <trkpt lat="51.217762475041" lon="4.463076094848">
        <ele>0</ele>
        <time>2020-06-13T13:00:07Z</time>
      </trkpt>
      <trkpt lat="51.217730037088" lon="4.463973377243">
        <ele>0</ele>
        <time>2020-06-13T13:00:27Z</time>
      </trkpt>
      <trkpt lat="51.217719308256" lon="4.464843418463">
        <ele>0</ele>
        <time>2020-06-13T13:00:47Z</time>
      </trkpt>
      <trkpt lat="51.21765275597" lon="4.465701641204">
        <ele>0</ele>
        <time>2020-06-13T13:01:02Z</time>
      </trkpt>
      <trkpt lat="51.217632304134" lon="4.466560115402">
        <ele>0</ele>
        <time>2020-06-13T13:01:17Z</time>
      </trkpt>
      <trkpt lat="51.217590394634" lon="4.46683940031">
        <ele>0</ele>
        <time>2020-06-13T13:01:24Z</time>
      </trkpt>
      <trkpt lat="51.217589388806" lon="4.466850548237">
        <ele>0</ele>
        <time>2020-06-13T13:01:25Z</time>
      </trkpt>
      <trkpt lat="51.217587628607" lon="4.466903521845">
        <ele>0</ele>
        <time>2020-06-13T13:01:31Z</time>
      </trkpt>
      <trkpt lat="51.217562315269" lon="4.467774736531">
        <ele>0</ele>
        <time>2020-06-13T13:01:54Z</time>
      </trkpt>
      <trkpt lat="51.217471958387" lon="4.46860630483">
        <ele>0</ele>
        <time>2020-06-13T13:02:12Z</time>
      </trkpt>
      <trkpt lat="51.21748427978" lon="4.469480201724">
        <ele>0</ele>
        <time>2020-06-13T13:02:33Z</time>
      </trkpt>
      <trkpt lat="51.217460056089" lon="4.470387374761">
        <ele>0</ele>
        <time>2020-06-13T13:02:51Z</time>
      </trkpt>
      <trkpt lat="51.21740129897" lon="4.471277783998">
        <ele>0</ele>
        <time>2020-06-13T13:03:08Z</time>
      </trkpt>
      <trkpt lat="51.217396186011" lon="4.472153608729">
        <ele>0</ele>
        <time>2020-06-13T13:03:24Z</time>
      </trkpt>
      <trkpt lat="51.217356958719" lon="4.473012250565">
        <ele>0</ele>
        <time>2020-06-13T13:03:41Z</time>
      </trkpt>
      <trkpt lat="51.217296860496" lon="4.473892685341">
        <ele>0</ele>
        <time>2020-06-13T13:03:59Z</time>
      </trkpt>
      <trkpt lat="51.217269284045" lon="4.474771611375">
        <ele>0</ele>
        <time>2020-06-13T13:04:22Z</time>
      </trkpt>
      <trkpt lat="51.217248413114" lon="4.475636036722">
        <ele>0</ele>
        <time>2020-06-13T13:04:43Z</time>
      </trkpt>
      <trkpt lat="51.217208934365" lon="4.476507167589">
        <ele>0</ele>
        <time>2020-06-13T13:05:02Z</time>
      </trkpt>
      <trkpt lat="51.217160403164" lon="4.477370000375">
        <ele>0</ele>
        <time>2020-06-13T13:05:20Z</time>
      </trkpt>
      <trkpt lat="51.217105753176" lon="4.47821950594">
        <ele>0</ele>
        <time>2020-06-13T13:05:38Z</time>
      </trkpt>
      <trkpt lat="51.217080691295" lon="4.479102790562">
        <ele>0</ele>
        <time>2020-06-13T13:05:58Z</time>
      </trkpt>
      <trkpt lat="51.217037105415" lon="4.479978615293">
        <ele>0</ele>
        <time>2020-06-13T13:06:18Z</time>
      </trkpt>
      <trkpt lat="51.216975833726" lon="4.480869359806">
        <ele>0</ele>
        <time>2020-06-13T13:06:38Z</time>
      </trkpt>
      <trkpt lat="51.216959069926" lon="4.48174241851">
        <ele>0</ele>
        <time>2020-06-13T13:06:57Z</time>
      </trkpt>
      <trkpt lat="51.216937947538" lon="4.481863453146">
        <ele>0</ele>
        <time>2020-06-13T13:07:01Z</time>
      </trkpt>
      <trkpt lat="51.216885057749" lon="4.481910643243">
        <ele>0</ele>
        <time>2020-06-13T13:07:05Z</time>
      </trkpt>
      <trkpt lat="51.216878100772" lon="4.481921539713">
        <ele>0</ele>
        <time>2020-06-13T13:07:08Z</time>
      </trkpt>
      <trkpt lat="51.216912801838" lon="4.482111725024">
        <ele>0</ele>
        <time>2020-06-13T13:07:48Z</time>
      </trkpt>
      <trkpt lat="51.216976839554" lon="4.482121699485">
        <ele>0</ele>
        <time>2020-06-13T13:07:52Z</time>
      </trkpt>
      <trkpt lat="51.216992010793" lon="4.482181797708">
        <ele>0</ele>
        <time>2020-06-13T13:07:54Z</time>
      </trkpt>
      <trkpt lat="51.216916238417" lon="4.483042115924">
        <ele>0</ele>
        <time>2020-06-13T13:08:17Z</time>
      </trkpt>
      <trkpt lat="51.216921435195" lon="4.48347579543">
        <ele>0</ele>
        <time>2020-06-13T13:08:28Z</time>
      </trkpt>
      <trkpt lat="51.21692772162" lon="4.483487697728">
        <ele>0</ele>
        <time>2020-06-13T13:11:16Z</time>
      </trkpt>
      <trkpt lat="51.216925877602" lon="4.483508149564">
        <ele>0</ele>
        <time>2020-06-13T13:11:17Z</time>
      </trkpt>
      <trkpt lat="51.216896121857" lon="4.484374838024">
        <ele>0</ele>
        <time>2020-06-13T13:11:40Z</time>
      </trkpt>
      <trkpt lat="51.216848847941" lon="4.485270108763">
        <ele>0</ele>
        <time>2020-06-13T13:12:01Z</time>
      </trkpt>
      <trkpt lat="51.21675673086" lon="4.486124978744">
        <ele>0</ele>
        <time>2020-06-13T13:12:22Z</time>
      </trkpt>
      <trkpt lat="51.216955968623" lon="4.486742473317">
        <ele>0</ele>
        <time>2020-06-13T13:12:41Z</time>
      </trkpt>
      <trkpt lat="51.21701740795" lon="4.486707772251">
        <ele>0</ele>
        <time>2020-06-13T13:12:45Z</time>
      </trkpt>
      <trkpt lat="51.217116649646" lon="4.486756890185">
        <ele>0</ele>
        <time>2020-06-13T13:12:52Z</time>
      </trkpt>
      <trkpt lat="51.217179262439" lon="4.487631457631">
        <ele>0</ele>
        <time>2020-06-13T13:13:17Z</time>
      </trkpt>
      <trkpt lat="51.217214466419" lon="4.48847559878">
        <ele>0</ele>
        <time>2020-06-13T13:13:36Z</time>
      </trkpt>
      <trkpt lat="51.217310690631" lon="4.489320578119">
        <ele>0</ele>
        <time>2020-06-13T13:13:55Z</time>
      </trkpt>
      <trkpt lat="51.217423594824" lon="4.490194391194">
        <ele>0</ele>
        <time>2020-06-13T13:14:15Z</time>
      </trkpt>
      <trkpt lat="51.217467683618" lon="4.491055631419">
        <ele>0</ele>
        <time>2020-06-13T13:14:33Z</time>
      </trkpt>
      <trkpt lat="51.217511185679" lon="4.491938496946">
        <ele>0</ele>
        <time>2020-06-13T13:14:52Z</time>
      </trkpt>
      <trkpt lat="51.217583772933" lon="4.492794288936">
        <ele>0</ele>
        <time>2020-06-13T13:15:11Z</time>
      </trkpt>
      <trkpt lat="51.217618557818" lon="4.493660893577">
        <ele>0</ele>
        <time>2020-06-13T13:15:31Z</time>
      </trkpt>
      <trkpt lat="51.217744873051" lon="4.494483409424">
        <ele>0</ele>
        <time>2020-06-13T13:15:52Z</time>
      </trkpt>
      <trkpt lat="51.217966155211" lon="4.495171814871">
        <ele>0</ele>
        <time>2020-06-13T13:16:10Z</time>
      </trkpt>
      <trkpt lat="51.217940422778" lon="4.495230907266">
        <ele>0</ele>
        <time>2020-06-13T13:16:12Z</time>
      </trkpt>
      <trkpt lat="51.217434072199" lon="4.495574984261">
        <ele>0</ele>
        <time>2020-06-13T13:16:36Z</time>
      </trkpt>
      <trkpt lat="51.216900731902" lon="4.495566602361">
        <ele>0</ele>
        <time>2020-06-13T13:16:56Z</time>
      </trkpt>
      <trkpt lat="51.216362613922" lon="4.495433246332">
        <ele>0</ele>
        <time>2020-06-13T13:17:12Z</time>
      </trkpt>
      <trkpt lat="51.215814689119" lon="4.495216406579">
        <ele>0</ele>
        <time>2020-06-13T13:17:27Z</time>
      </trkpt>
      <trkpt lat="51.215296352423" lon="4.494996046428">
        <ele>0</ele>
        <time>2020-06-13T13:17:44Z</time>
      </trkpt>
      <trkpt lat="51.215302135934" lon="4.495070310062">
        <ele>0</ele>
        <time>2020-06-13T13:19:30Z</time>
      </trkpt>
      <trkpt lat="51.215290820369" lon="4.495532655666">
        <ele>0</ele>
        <time>2020-06-13T13:19:43Z</time>
      </trkpt>
      <trkpt lat="51.214870719541" lon="4.496030708164">
        <ele>0</ele>
        <time>2020-06-13T13:20:03Z</time>
      </trkpt>
      <trkpt lat="51.214318100874" lon="4.49612240615">
        <ele>0</ele>
        <time>2020-06-13T13:20:25Z</time>
      </trkpt>
      <trkpt lat="51.21328578607" lon="4.496450222259">
        <ele>0</ele>
        <time>2020-06-13T13:21:05Z</time>
      </trkpt>
      <trkpt lat="51.212733837955" lon="4.496405546732">
        <ele>0</ele>
        <time>2020-06-13T13:21:23Z</time>
      </trkpt>
      <trkpt lat="51.212552621277" lon="4.496282584259">
        <ele>0</ele>
        <time>2020-06-13T13:21:31Z</time>
      </trkpt>
      <trkpt lat="51.212694945939" lon="4.495691325033">
        <ele>0</ele>
        <time>2020-06-13T13:21:48Z</time>
      </trkpt>
      <trkpt lat="51.212674577922" lon="4.49564631423">
        <ele>0</ele>
        <time>2020-06-13T13:21:50Z</time>
      </trkpt>
      <trkpt lat="51.212413481737" lon="4.496416694659">
        <ele>0</ele>
        <time>2020-06-13T13:22:11Z</time>
      </trkpt>
      <trkpt lat="51.21218691898" lon="4.497208784209">
        <ele>0</ele>
        <time>2020-06-13T13:22:30Z</time>
      </trkpt>
      <trkpt lat="51.211931019573" lon="4.497984696692">
        <ele>0</ele>
        <time>2020-06-13T13:22:55Z</time>
      </trkpt>
      <trkpt lat="51.211263317419" lon="4.499097729193">
        <ele>0</ele>
        <time>2020-06-13T13:23:44Z</time>
      </trkpt>
      <trkpt lat="51.210872134146" lon="4.499710613721">
        <ele>0</ele>
        <time>2020-06-13T13:24:08Z</time>
      </trkpt>
      <trkpt lat="51.210417835166" lon="4.500100204433">
        <ele>0</ele>
        <time>2020-06-13T13:24:33Z</time>
      </trkpt>
      <trkpt lat="51.21042169084" lon="4.500138509716">
        <ele>0</ele>
        <time>2020-06-13T13:24:34Z</time>
      </trkpt>
      <trkpt lat="51.210217340118" lon="4.500887348662">
        <ele>0</ele>
        <time>2020-06-13T13:24:54Z</time>
      </trkpt>
      <trkpt lat="51.209865887051" lon="4.501566198743">
        <ele>0</ele>
        <time>2020-06-13T13:25:11Z</time>
      </trkpt>
      <trkpt lat="51.209512757604" lon="4.502228704119">
        <ele>2</ele>
        <time>2020-06-13T13:25:33Z</time>
      </trkpt>
      <trkpt lat="51.209136410294" lon="4.502846198692">
        <ele>0</ele>
        <time>2020-06-13T13:26:02Z</time>
      </trkpt>
      <trkpt lat="51.208751345808" lon="4.503509039344">
        <ele>0</ele>
        <time>2020-06-13T13:26:25Z</time>
      </trkpt>
      <trkpt lat="51.208404335148" lon="4.50419501404">
        <ele>1</ele>
        <time>2020-06-13T13:26:45Z</time>
      </trkpt>
      <trkpt lat="51.208103844033" lon="4.504911247395">
        <ele>1</ele>
        <time>2020-06-13T13:27:04Z</time>
      </trkpt>
      <trkpt lat="51.207820451994" lon="4.505652794088">
        <ele>0</ele>
        <time>2020-06-13T13:27:26Z</time>
      </trkpt>
      <trkpt lat="51.207377300941" lon="4.505660086341">
        <ele>0</ele>
        <time>2020-06-13T13:27:54Z</time>
      </trkpt>
      <trkpt lat="51.20689207275" lon="4.505228921405">
        <ele>0</ele>
        <time>2020-06-13T13:28:23Z</time>
      </trkpt>
      <trkpt lat="51.206676741739" lon="4.504686361018">
        <ele>0.2</ele>
        <time>2020-06-13T13:28:51Z</time>
      </trkpt>
      <trkpt lat="51.206686632381" lon="4.504693150357">
        <ele>0</ele>
        <time>2020-06-13T13:28:57Z</time>
      </trkpt>
      <trkpt lat="51.206690739512" lon="4.504664903354">
        <ele>0</ele>
        <time>2020-06-13T13:29:00Z</time>
      </trkpt>
      <trkpt lat="51.206663079242" lon="4.503795113591">
        <ele>0</ele>
        <time>2020-06-13T13:29:30Z</time>
      </trkpt>
      <trkpt lat="51.206626115063" lon="4.502939153963">
        <ele>0.2</ele>
        <time>2020-06-13T13:30:00Z</time>
      </trkpt>
      <trkpt lat="51.206609854177" lon="4.502071375856">
        <ele>1.4</ele>
        <time>2020-06-13T13:30:32Z</time>
      </trkpt>
      <trkpt lat="51.206578757328" lon="4.501198987704">
        <ele>0</ele>
        <time>2020-06-13T13:31:01Z</time>
      </trkpt>
      <trkpt lat="51.20652494553" lon="4.500325677543">
        <ele>0.4</ele>
        <time>2020-06-13T13:31:28Z</time>
      </trkpt>
      <trkpt lat="51.206477923071" lon="4.499460497825">
        <ele>0.2</ele>
        <time>2020-06-13T13:31:56Z</time>
      </trkpt>
      <trkpt lat="51.206423775997" lon="4.499022962645">
        <ele>1</ele>
        <time>2020-06-13T13:32:10Z</time>
      </trkpt>
      <trkpt lat="51.206398462659" lon="4.498991362882">
        <ele>1</ele>
        <time>2020-06-13T13:32:12Z</time>
      </trkpt>
      <trkpt lat="51.206231830487" lon="4.499065123602">
        <ele>0.6</ele>
        <time>2020-06-13T13:32:24Z</time>
      </trkpt>
      <trkpt lat="51.205699915113" lon="4.499008126682">
        <ele>0</ele>
        <time>2020-06-13T13:32:51Z</time>
      </trkpt>
      <trkpt lat="51.205157438545" lon="4.499129161318">
        <ele>0</ele>
        <time>2020-06-13T13:33:20Z</time>
      </trkpt>
      <trkpt lat="51.204601886213" lon="4.499233348335">
        <ele>0</ele>
        <time>2020-06-13T13:33:43Z</time>
      </trkpt>
      <trkpt lat="51.204299467261" lon="4.49927064779">
        <ele>0</ele>
        <time>2020-06-13T13:33:57Z</time>
      </trkpt>
      <trkpt lat="51.204070054658" lon="4.498727081575">
        <ele>0</ele>
        <time>2020-06-13T13:34:26Z</time>
      </trkpt>
      <trkpt lat="51.203535540895" lon="4.498508565442">
        <ele>1.4</ele>
        <time>2020-06-13T13:34:50Z</time>
      </trkpt>
      <trkpt lat="51.20303136961" lon="4.498185275559">
        <ele>0.6</ele>
        <time>2020-06-13T13:35:12Z</time>
      </trkpt>
      <trkpt lat="51.202585871625" lon="4.498656757434">
        <ele>0</ele>
        <time>2020-06-13T13:35:34Z</time>
      </trkpt>
      <trkpt lat="51.202062002875" lon="4.49889932962">
        <ele>3.2</ele>
        <time>2020-06-13T13:35:58Z</time>
      </trkpt>
      <trkpt lat="51.201534278451" lon="4.498740995529">
        <ele>5.8</ele>
        <time>2020-06-13T13:36:22Z</time>
      </trkpt>
      <trkpt lat="51.201054666133" lon="4.498315195009">
        <ele>4.2</ele>
        <time>2020-06-13T13:36:42Z</time>
      </trkpt>
      <trkpt lat="51.200669853104" lon="4.497658137868">
        <ele>1</ele>
        <time>2020-06-13T13:37:00Z</time>
      </trkpt>
      <trkpt lat="51.200420826855" lon="4.496893708588">
        <ele>0</ele>
        <time>2020-06-13T13:37:23Z</time>
      </trkpt>
      <trkpt lat="51.199894359716" lon="4.496634204964">
        <ele>7.8</ele>
        <time>2020-06-13T13:37:43Z</time>
      </trkpt>
      <trkpt lat="51.199416507597" lon="4.496231035574">
        <ele>7.6</ele>
        <time>2020-06-13T13:38:06Z</time>
      </trkpt>
      <trkpt lat="51.199171085565" lon="4.495481442257">
        <ele>0.8</ele>
        <time>2020-06-13T13:38:33Z</time>
      </trkpt>
      <trkpt lat="51.199222131336" lon="4.494613831788">
        <ele>0.4</ele>
        <time>2020-06-13T13:38:55Z</time>
      </trkpt>
      <trkpt lat="51.199336041357" lon="4.493731636813">
        <ele>2.4</ele>
        <time>2020-06-13T13:39:15Z</time>
      </trkpt>
      <trkpt lat="51.199464535884" lon="4.492896464297">
        <ele>3</ele>
        <time>2020-06-13T13:39:34Z</time>
      </trkpt>
      <trkpt lat="51.199644830553" lon="4.492072020613">
        <ele>0</ele>
        <time>2020-06-13T13:39:54Z</time>
      </trkpt>
      <trkpt lat="51.199682297646" lon="4.491232657147">
        <ele>2</ele>
        <time>2020-06-13T13:40:21Z</time>
      </trkpt>
      <trkpt lat="51.200140787576" lon="4.490981367785">
        <ele>2.4</ele>
        <time>2020-06-13T13:40:44Z</time>
      </trkpt>
      <trkpt lat="51.200685862533" lon="4.491042555655">
        <ele>3.4</ele>
        <time>2020-06-13T13:41:08Z</time>
      </trkpt>
      <trkpt lat="51.201242169236" lon="4.491046243691">
        <ele>0.6</ele>
        <time>2020-06-13T13:41:26Z</time>
      </trkpt>
      <trkpt lat="51.201522292334" lon="4.491036604506">
        <ele>1</ele>
        <time>2020-06-13T13:41:41Z</time>
      </trkpt>
      <trkpt lat="51.201522711429" lon="4.49107734054">
        <ele>1.6</ele>
        <time>2020-06-13T13:41:44Z</time>
      </trkpt>
      <trkpt lat="51.201373681247" lon="4.491870771194">
        <ele>0.2</ele>
        <time>2020-06-13T13:42:04Z</time>
      </trkpt>
      <trkpt lat="51.201367143365" lon="4.492740896233">
        <ele>2.2</ele>
        <time>2020-06-13T13:42:23Z</time>
      </trkpt>
      <trkpt lat="51.201383739527" lon="4.492964692963">
        <ele>3.4</ele>
        <time>2020-06-13T13:42:30Z</time>
      </trkpt>
      <trkpt lat="51.201455740048" lon="4.493009955223">
        <ele>5.4</ele>
        <time>2020-06-13T13:42:35Z</time>
      </trkpt>
      <trkpt lat="51.201418859688" lon="4.493014732906">
        <ele>5.8</ele>
        <time>2020-06-13T13:42:40Z</time>
      </trkpt>
      <trkpt lat="51.201411064521" lon="4.492739722767">
        <ele>9</ele>
        <time>2020-06-13T13:42:50Z</time>
      </trkpt>
      <trkpt lat="51.20142539757" lon="4.492771909263">
        <ele>7</ele>
        <time>2020-06-13T13:43:27Z</time>
      </trkpt>
      <trkpt lat="51.201407879399" lon="4.492732849609">
        <ele>7.4</ele>
        <time>2020-06-13T13:43:31Z</time>
      </trkpt>
      <trkpt lat="51.201449872718" lon="4.492337307748">
        <ele>2.8</ele>
        <time>2020-06-13T13:43:44Z</time>
      </trkpt>
      <trkpt lat="51.202011711475" lon="4.492274778774">
        <ele>0</ele>
        <time>2020-06-13T13:44:01Z</time>
      </trkpt>
      <trkpt lat="51.20253348475" lon="4.492284501778">
        <ele>0</ele>
        <time>2020-06-13T13:44:14Z</time>
      </trkpt>
      <trkpt lat="51.202989376291" lon="4.491885271881">
        <ele>0</ele>
        <time>2020-06-13T13:44:30Z</time>
      </trkpt>
      <trkpt lat="51.203182998181" lon="4.492651964274">
        <ele>3</ele>
        <time>2020-06-13T13:44:48Z</time>
      </trkpt>
      <trkpt lat="51.203176208842" lon="4.49279730642">
        <ele>4.8</ele>
        <time>2020-06-13T13:44:52Z</time>
      </trkpt>
      <trkpt lat="51.203143854708" lon="4.492792361099">
        <ele>5.2</ele>
        <time>2020-06-13T13:44:54Z</time>
      </trkpt>
      <trkpt lat="51.203149219124" lon="4.491971018718">
        <ele>13.8</ele>
        <time>2020-06-13T13:45:18Z</time>
      </trkpt>
      <trkpt lat="51.202881752695" lon="4.491934054539">
        <ele>12</ele>
        <time>2020-06-13T13:45:31Z</time>
      </trkpt>
      <trkpt lat="51.203126587994" lon="4.491099804032">
        <ele>0</ele>
        <time>2020-06-13T13:46:01Z</time>
      </trkpt>
      <trkpt lat="51.203279054755" lon="4.490262200765">
        <ele>0</ele>
        <time>2020-06-13T13:46:18Z</time>
      </trkpt>
      <trkpt lat="51.203298333125" lon="4.490045780107">
        <ele>0.4</ele>
        <time>2020-06-13T13:46:25Z</time>
      </trkpt>
      <trkpt lat="51.203271008131" lon="4.489995907802">
        <ele>1</ele>
        <time>2020-06-13T13:46:27Z</time>
      </trkpt>
      <trkpt lat="51.202796760229" lon="4.490380553193">
        <ele>0</ele>
        <time>2020-06-13T13:46:52Z</time>
      </trkpt>
      <trkpt lat="51.202563324314" lon="4.491022942009">
        <ele>0</ele>
        <time>2020-06-13T13:47:15Z</time>
      </trkpt>
      <trkpt lat="51.202300635568" lon="4.491758621372">
        <ele>0</ele>
        <time>2020-06-13T13:47:45Z</time>
      </trkpt>
      <trkpt lat="51.202148671721" lon="4.49206305198">
        <ele>0.2</ele>
        <time>2020-06-13T13:47:56Z</time>
      </trkpt>
      <trkpt lat="51.201613655044" lon="4.492232450179">
        <ele>4.4</ele>
        <time>2020-06-13T13:48:17Z</time>
      </trkpt>
      <trkpt lat="51.201446100863" lon="4.492234461835">
        <ele>2.6</ele>
        <time>2020-06-13T13:48:22Z</time>
      </trkpt>
      <trkpt lat="51.20144132318" lon="4.4913992055">
        <ele>0</ele>
        <time>2020-06-13T13:48:48Z</time>
      </trkpt>
      <trkpt lat="51.201439730619" lon="4.491350841937">
        <ele>0</ele>
        <time>2020-06-13T13:48:49Z</time>
      </trkpt>
      <trkpt lat="51.201851365728" lon="4.490817334002">
        <ele>0</ele>
        <time>2020-06-13T13:49:16Z</time>
      </trkpt>
      <trkpt lat="51.20232309906" lon="4.49037912827">
        <ele>1</ele>
        <time>2020-06-13T13:49:33Z</time>
      </trkpt>
      <trkpt lat="51.202758203489" lon="4.489831538743">
        <ele>7.6</ele>
        <time>2020-06-13T13:49:51Z</time>
      </trkpt>
      <trkpt lat="51.203239073092" lon="4.489438259995">
        <ele>0.6</ele>
        <time>2020-06-13T13:50:11Z</time>
      </trkpt>
      <trkpt lat="51.203448955868" lon="4.489894067717">
        <ele>7.4</ele>
        <time>2020-06-13T13:50:36Z</time>
      </trkpt>
      <trkpt lat="51.203193559375" lon="4.490664029051">
        <ele>3</ele>
        <time>2020-06-13T13:50:57Z</time>
      </trkpt>
      <trkpt lat="51.203099095362" lon="4.491136181478">
        <ele>4.2</ele>
        <time>2020-06-13T13:51:14Z</time>
      </trkpt>
      <trkpt lat="51.203124492519" lon="4.490978015025">
        <ele>0</ele>
        <time>2020-06-13T13:51:51Z</time>
      </trkpt>
      <trkpt lat="51.203336303132" lon="4.490181902163">
        <ele>0</ele>
        <time>2020-06-13T13:52:27Z</time>
      </trkpt>
      <trkpt lat="51.203632519478" lon="4.489761046964">
        <ele>0</ele>
        <time>2020-06-13T13:52:48Z</time>
      </trkpt>
      <trkpt lat="51.203776017606" lon="4.490602589724">
        <ele>4</ele>
        <time>2020-06-13T13:53:11Z</time>
      </trkpt>
      <trkpt lat="51.203871403628" lon="4.491489059468">
        <ele>5.8</ele>
        <time>2020-06-13T13:53:33Z</time>
      </trkpt>
      <trkpt lat="51.204116238927" lon="4.492290955841">
        <ele>6.6</ele>
        <time>2020-06-13T13:53:50Z</time>
      </trkpt>
      <trkpt lat="51.20459794672" lon="4.493350679458">
        <ele>0.8</ele>
        <time>2020-06-13T13:54:24Z</time>
      </trkpt>
      <trkpt lat="51.205084767472" lon="4.493801625678">
        <ele>0</ele>
        <time>2020-06-13T13:54:46Z</time>
      </trkpt>
      <trkpt lat="51.205458684031" lon="4.494431441644">
        <ele>0</ele>
        <time>2020-06-13T13:55:07Z</time>
      </trkpt>
      <trkpt lat="51.205283083226" lon="4.495217580045">
        <ele>0</ele>
        <time>2020-06-13T13:55:33Z</time>
      </trkpt>
      <trkpt lat="51.205250309997" lon="4.495333585541">
        <ele>0</ele>
        <time>2020-06-13T13:55:51Z</time>
      </trkpt>
      <trkpt lat="51.204977311514" lon="4.496085274333">
        <ele>2.4</ele>
        <time>2020-06-13T13:56:25Z</time>
      </trkpt>
      <trkpt lat="51.204703810117" lon="4.49684576412">
        <ele>0</ele>
        <time>2020-06-13T13:56:55Z</time>
      </trkpt>
      <trkpt lat="51.204415556576" lon="4.497561326923">
        <ele>0</ele>
        <time>2020-06-13T13:57:24Z</time>
      </trkpt>
      <trkpt lat="51.203889508532" lon="4.497506341659">
        <ele>6</ele>
        <time>2020-06-13T13:57:50Z</time>
      </trkpt>
      <trkpt lat="51.203366226515" lon="4.497277851065">
        <ele>8.8</ele>
        <time>2020-06-13T13:58:15Z</time>
      </trkpt>
      <trkpt lat="51.203333453286" lon="4.497247340949">
        <ele>6.6</ele>
        <time>2020-06-13T13:58:19Z</time>
      </trkpt>
      <trkpt lat="51.202310190934" lon="4.497859219649">
        <ele>20.6</ele>
        <time>2020-06-13T14:04:19Z</time>
      </trkpt>
      <trkpt lat="51.202483444807" lon="4.498698834572">
        <ele>7</ele>
        <time>2020-06-13T14:04:42Z</time>
      </trkpt>
      <trkpt lat="51.20251420638" lon="4.498847026564">
        <ele>8.2</ele>
        <time>2020-06-13T14:04:50Z</time>
      </trkpt>
      <trkpt lat="51.202496520571" lon="4.498888684607">
        <ele>9</ele>
        <time>2020-06-13T14:06:27Z</time>
      </trkpt>
      <trkpt lat="51.202594421163" lon="4.499734250679">
        <ele>9.4</ele>
        <time>2020-06-13T14:06:45Z</time>
      </trkpt>
      <trkpt lat="51.202607580746" lon="4.500604627175">
        <ele>6.2</ele>
        <time>2020-06-13T14:07:03Z</time>
      </trkpt>
      <trkpt lat="51.20262652384" lon="4.501479865173">
        <ele>7.4</ele>
        <time>2020-06-13T14:07:17Z</time>
      </trkpt>
      <trkpt lat="51.202615962646" lon="4.502385278011">
        <ele>7.8</ele>
        <time>2020-06-13T14:07:34Z</time>
      </trkpt>
      <trkpt lat="51.202644209649" lon="4.503279207646">
        <ele>8.2</ele>
        <time>2020-06-13T14:07:50Z</time>
      </trkpt>
      <trkpt lat="51.202606910194" lon="4.504136759835">
        <ele>6</ele>
        <time>2020-06-13T14:08:06Z</time>
      </trkpt>
      <trkpt lat="51.202445810076" lon="4.504972435265">
        <ele>4.8</ele>
        <time>2020-06-13T14:08:20Z</time>
      </trkpt>
      <trkpt lat="51.202288397994" lon="4.505835770965">
        <ele>5.2</ele>
        <time>2020-06-13T14:08:36Z</time>
      </trkpt>
      <trkpt lat="51.202317147911" lon="4.506093598209">
        <ele>5.2</ele>
        <time>2020-06-13T14:08:41Z</time>
      </trkpt>
      <trkpt lat="51.202879405763" lon="4.506125700886">
        <ele>0.6</ele>
        <time>2020-06-13T14:08:57Z</time>
      </trkpt>
      <trkpt lat="51.20342783348" lon="4.506293087429">
        <ele>0</ele>
        <time>2020-06-13T14:09:15Z</time>
      </trkpt>
      <trkpt lat="51.203951534592" lon="4.506579832228">
        <ele>0.4</ele>
        <time>2020-06-13T14:09:31Z</time>
      </trkpt>
      <trkpt lat="51.204451012013" lon="4.506793570678">
        <ele>2.4</ele>
        <time>2020-06-13T14:09:47Z</time>
      </trkpt>
      <trkpt lat="51.204479091378" lon="4.506634566035">
        <ele>3.4</ele>
        <time>2020-06-13T14:09:49Z</time>
      </trkpt>
      <trkpt lat="51.204501722508" lon="4.505765698281">
        <ele>6.6</ele>
        <time>2020-06-13T14:10:04Z</time>
      </trkpt>
      <trkpt lat="51.204505410544" lon="4.505297652985">
        <ele>5.2</ele>
        <time>2020-06-13T14:10:14Z</time>
      </trkpt>
      <trkpt lat="51.204518905403" lon="4.505317434269">
        <ele>5.4</ele>
        <time>2020-06-13T14:10:16Z</time>
      </trkpt>
      <trkpt lat="51.204506248734" lon="4.505356829199">
        <ele>5.4</ele>
        <time>2020-06-13T14:10:18Z</time>
      </trkpt>
      <trkpt lat="51.204442965389" lon="4.505379879424">
        <ele>3.6</ele>
        <time>2020-06-13T14:10:26Z</time>
      </trkpt>
      <trkpt lat="51.204154460391" lon="4.505410054264">
        <ele>5.8</ele>
        <time>2020-06-13T14:10:39Z</time>
      </trkpt>
      <trkpt lat="51.204184048498" lon="4.5045420247">
        <ele>1.6</ele>
        <time>2020-06-13T14:11:00Z</time>
      </trkpt>
      <trkpt lat="51.204177678254" lon="4.503658153345">
        <ele>2.8</ele>
        <time>2020-06-13T14:11:18Z</time>
      </trkpt>
      <trkpt lat="51.204177510616" lon="4.502782747709">
        <ele>3.6</ele>
        <time>2020-06-13T14:11:38Z</time>
      </trkpt>
      <trkpt lat="51.204163345205" lon="4.501922010398">
        <ele>1.4</ele>
        <time>2020-06-13T14:11:56Z</time>
      </trkpt>
      <trkpt lat="51.204201818126" lon="4.501050208979">
        <ele>1</ele>
        <time>2020-06-13T14:12:14Z</time>
      </trkpt>
      <trkpt lat="51.204246074558" lon="4.500195506636">
        <ele>0.2</ele>
        <time>2020-06-13T14:12:34Z</time>
      </trkpt>
      <trkpt lat="51.204336012345" lon="4.499321274466">
        <ele>0</ele>
        <time>2020-06-13T14:12:54Z</time>
      </trkpt>
      <trkpt lat="51.204490239305" lon="4.498558018652">
        <ele>0</ele>
        <time>2020-06-13T14:13:14Z</time>
      </trkpt>
      <trkpt lat="51.20494914833" lon="4.498111179563">
        <ele>2.8</ele>
        <time>2020-06-13T14:13:33Z</time>
      </trkpt>
      <trkpt lat="51.205155594527" lon="4.497281287644">
        <ele>0</ele>
        <time>2020-06-13T14:13:48Z</time>
      </trkpt>
      <trkpt lat="51.205357765955" lon="4.496465896412">
        <ele>1.8</ele>
        <time>2020-06-13T14:14:02Z</time>
      </trkpt>
      <trkpt lat="51.205596733924" lon="4.49564128509">
        <ele>1.2</ele>
        <time>2020-06-13T14:14:19Z</time>
      </trkpt>
      <trkpt lat="51.205656329233" lon="4.494768058748">
        <ele>0</ele>
        <time>2020-06-13T14:14:36Z</time>
      </trkpt>
      <trkpt lat="51.205701172398" lon="4.494703182842">
        <ele>1</ele>
        <time>2020-06-13T14:14:47Z</time>
      </trkpt>
      <trkpt lat="51.205693963964" lon="4.494744757066">
        <ele>1.6</ele>
        <time>2020-06-13T14:14:55Z</time>
      </trkpt>
      <trkpt lat="51.205767054132" lon="4.494143607198">
        <ele>1.4</ele>
        <time>2020-06-13T14:15:11Z</time>
      </trkpt>
      <trkpt lat="51.206243146052" lon="4.494135644393">
        <ele>5.4</ele>
        <time>2020-06-13T14:15:29Z</time>
      </trkpt>
      <trkpt lat="51.206242643138" lon="4.494178224445">
        <ele>8.6</ele>
        <time>2020-06-13T14:15:56Z</time>
      </trkpt>
      <trkpt lat="51.206214982868" lon="4.495073076089">
        <ele>5</ele>
        <time>2020-06-13T14:16:18Z</time>
      </trkpt>
      <trkpt lat="51.206225208786" lon="4.49528756891">
        <ele>4</ele>
        <time>2020-06-13T14:16:25Z</time>
      </trkpt>
      <trkpt lat="51.20656517865" lon="4.495926772604">
        <ele>3.4</ele>
        <time>2020-06-13T14:16:51Z</time>
      </trkpt>
      <trkpt lat="51.206815210727" lon="4.495711273955">
        <ele>0.4</ele>
        <time>2020-06-13T14:17:15Z</time>
      </trkpt>
      <trkpt lat="51.206608680711" lon="4.495960132566">
        <ele>0</ele>
        <time>2020-06-13T14:17:44Z</time>
      </trkpt>
      <trkpt lat="51.206278936765" lon="4.495299806484">
        <ele>0</ele>
        <time>2020-06-13T14:18:03Z</time>
      </trkpt>
      <trkpt lat="51.206073244939" lon="4.495192937259">
        <ele>0</ele>
        <time>2020-06-13T14:18:15Z</time>
      </trkpt>
      <trkpt lat="51.206117920466" lon="4.495197547304">
        <ele>0</ele>
        <time>2020-06-13T14:18:19Z</time>
      </trkpt>
      <trkpt lat="51.206168882418" lon="4.495238702433">
        <ele>0</ele>
        <time>2020-06-13T14:18:21Z</time>
      </trkpt>
      <trkpt lat="51.206189250435" lon="4.495220848986">
        <ele>0</ele>
        <time>2020-06-13T14:18:23Z</time>
      </trkpt>
      <trkpt lat="51.206302406085" lon="4.494356591277">
        <ele>0</ele>
        <time>2020-06-13T14:18:42Z</time>
      </trkpt>
      <trkpt lat="51.206342806843" lon="4.494178392083">
        <ele>0</ele>
        <time>2020-06-13T14:18:46Z</time>
      </trkpt>
      <trkpt lat="51.206889893456" lon="4.49415014508">
        <ele>5.2</ele>
        <time>2020-06-13T14:19:04Z</time>
      </trkpt>
      <trkpt lat="51.206936999734" lon="4.494081832595">
        <ele>4.2</ele>
        <time>2020-06-13T14:19:07Z</time>
      </trkpt>
      <trkpt lat="51.206945465453" lon="4.493175916843">
        <ele>4.2</ele>
        <time>2020-06-13T14:19:23Z</time>
      </trkpt>
      <trkpt lat="51.206960217597" lon="4.492308222555">
        <ele>2.4</ele>
        <time>2020-06-13T14:19:38Z</time>
      </trkpt>
      <trkpt lat="51.207126263036" lon="4.491489478563">
        <ele>1.6</ele>
        <time>2020-06-13T14:19:52Z</time>
      </trkpt>
      <trkpt lat="51.207358860761" lon="4.490685151439">
        <ele>2.6</ele>
        <time>2020-06-13T14:20:07Z</time>
      </trkpt>
      <trkpt lat="51.207532952824" lon="4.49004301408">
        <ele>5.8</ele>
        <time>2020-06-13T14:20:21Z</time>
      </trkpt>
      <trkpt lat="51.207539239249" lon="4.490049049048">
        <ele>6.8</ele>
        <time>2020-06-13T14:20:27Z</time>
      </trkpt>
      <trkpt lat="51.207552901746" lon="4.490045947745">
        <ele>7.8</ele>
        <time>2020-06-13T14:20:30Z</time>
      </trkpt>
      <trkpt lat="51.208016588454" lon="4.490493457386">
        <ele>7.4</ele>
        <time>2020-06-13T14:20:50Z</time>
      </trkpt>
      <trkpt lat="51.208518831902" lon="4.490884724478">
        <ele>8.8</ele>
        <time>2020-06-13T14:21:06Z</time>
      </trkpt>
      <trkpt lat="51.208998528039" lon="4.491327540255">
        <ele>7.8</ele>
        <time>2020-06-13T14:21:21Z</time>
      </trkpt>
      <trkpt lat="51.209499514202" lon="4.491748646911">
        <ele>9.2</ele>
        <time>2020-06-13T14:21:38Z</time>
      </trkpt>
      <trkpt lat="51.209985412945" lon="4.492161036391">
        <ele>13.4</ele>
        <time>2020-06-13T14:21:52Z</time>
      </trkpt>
      <trkpt lat="51.21044683654" lon="4.492554734234">
        <ele>11.2</ele>
        <time>2020-06-13T14:22:05Z</time>
      </trkpt>
      <trkpt lat="51.210561417113" lon="4.493428798766">
        <ele>4.4</ele>
        <time>2020-06-13T14:22:22Z</time>
      </trkpt>
      <trkpt lat="51.210814969588" lon="4.494173111486">
        <ele>3</ele>
        <time>2020-06-13T14:22:36Z</time>
      </trkpt>
      <trkpt lat="51.211296342105" lon="4.494555996678">
        <ele>1.4</ele>
        <time>2020-06-13T14:22:52Z</time>
      </trkpt>
      <trkpt lat="51.211816103724" lon="4.494338318735">
        <ele>0</ele>
        <time>2020-06-13T14:23:06Z</time>
      </trkpt>
      <trkpt lat="51.212257494578" lon="4.49384085297">
        <ele>1</ele>
        <time>2020-06-13T14:23:20Z</time>
      </trkpt>
      <trkpt lat="51.212791924522" lon="4.494044868416">
        <ele>2.6</ele>
        <time>2020-06-13T14:23:36Z</time>
      </trkpt>
      <trkpt lat="51.212869960011" lon="4.494116198385">
        <ele>5.2</ele>
        <time>2020-06-13T14:23:40Z</time>
      </trkpt>
      <trkpt lat="51.212921927791" lon="4.494124077371">
        <ele>9.4</ele>
        <time>2020-06-13T14:27:38Z</time>
      </trkpt>
      <trkpt lat="51.2129731412" lon="4.49412248481">
        <ele>8.8</ele>
        <time>2020-06-13T14:27:41Z</time>
      </trkpt>
      <trkpt lat="51.21349868633" lon="4.494359524942">
        <ele>7.4</ele>
        <time>2020-06-13T14:28:04Z</time>
      </trkpt>
      <trkpt lat="51.214021800709" lon="4.494642916981">
        <ele>5.4</ele>
        <time>2020-06-13T14:28:19Z</time>
      </trkpt>
      <trkpt lat="51.214542819613" lon="4.494903258795">
        <ele>7.2</ele>
        <time>2020-06-13T14:28:34Z</time>
      </trkpt>
      <trkpt lat="51.215085715276" lon="4.49519369163">
        <ele>5.4</ele>
        <time>2020-06-13T14:28:51Z</time>
      </trkpt>
      <trkpt lat="51.215481592413" lon="4.495422349862">
        <ele>6</ele>
        <time>2020-06-13T14:29:03Z</time>
      </trkpt>
      <trkpt lat="51.216002862774" lon="4.495626449127">
        <ele>5.8</ele>
        <time>2020-06-13T14:29:19Z</time>
      </trkpt>
      <trkpt lat="51.216551122853" lon="4.495848150382">
        <ele>4.8</ele>
        <time>2020-06-13T14:29:34Z</time>
      </trkpt>
      <trkpt lat="51.217096784543" lon="4.495989301578">
        <ele>5.8</ele>
        <time>2020-06-13T14:29:47Z</time>
      </trkpt>
      <trkpt lat="51.217645882812" lon="4.496209997005">
        <ele>3</ele>
        <time>2020-06-13T14:30:02Z</time>
      </trkpt>
      <trkpt lat="51.218156256703" lon="4.496499172555">
        <ele>2</ele>
        <time>2020-06-13T14:30:19Z</time>
      </trkpt>
      <trkpt lat="51.218699906737" lon="4.496789270114">
        <ele>3.4</ele>
        <time>2020-06-13T14:30:34Z</time>
      </trkpt>
      <trkpt lat="51.219244562599" lon="4.497072578334">
        <ele>8.6</ele>
        <time>2020-06-13T14:30:50Z</time>
      </trkpt>
      <trkpt lat="51.219759462716" lon="4.497361167151">
        <ele>3.4</ele>
        <time>2020-06-13T14:31:05Z</time>
      </trkpt>
      <trkpt lat="51.220277883231" lon="4.497689402355">
        <ele>2.4</ele>
        <time>2020-06-13T14:31:20Z</time>
      </trkpt>
      <trkpt lat="51.220772750607" lon="4.498018811025">
        <ele>5</ele>
        <time>2020-06-13T14:31:35Z</time>
      </trkpt>
      <trkpt lat="51.220937371123" lon="4.498211259449">
        <ele>6</ele>
        <time>2020-06-13T14:31:42Z</time>
      </trkpt>
      <trkpt lat="51.221039378846" lon="4.498185946111">
        <ele>6.4</ele>
        <time>2020-06-13T14:31:49Z</time>
      </trkpt>
      <trkpt lat="51.22104071995" lon="4.498173624718">
        <ele>9.2</ele>
        <time>2020-06-13T14:32:10Z</time>
      </trkpt>
      <trkpt lat="51.221083048545" lon="4.49818602993">
        <ele>9.4</ele>
        <time>2020-06-13T14:32:15Z</time>
      </trkpt>
      <trkpt lat="51.221170974676" lon="4.498082597284">
        <ele>4.4</ele>
        <time>2020-06-13T14:33:03Z</time>
      </trkpt>
      <trkpt lat="51.221229061243" lon="4.497985786339">
        <ele>4.4</ele>
        <time>2020-06-13T14:33:07Z</time>
      </trkpt>
      <trkpt lat="51.221866588557" lon="4.498187790129">
        <ele>4</ele>
        <time>2020-06-13T14:33:29Z</time>
      </trkpt>
      <trkpt lat="51.22236170739" lon="4.497768024577">
        <ele>6</ele>
        <time>2020-06-13T14:33:45Z</time>
      </trkpt>
      <trkpt lat="51.222511994857" lon="4.497032009938">
        <ele>5.4</ele>
        <time>2020-06-13T14:34:02Z</time>
      </trkpt>
      <trkpt lat="51.22237428024" lon="4.49616096289">
        <ele>6.6</ele>
        <time>2020-06-13T14:34:23Z</time>
      </trkpt>
      <trkpt lat="51.222166576758" lon="4.495365101485">
        <ele>6.8</ele>
        <time>2020-06-13T14:34:43Z</time>
      </trkpt>
      <trkpt lat="51.222001872423" lon="4.494550548443">
        <ele>4.2</ele>
        <time>2020-06-13T14:35:01Z</time>
      </trkpt>
      <trkpt lat="51.221804478678" lon="4.493723841646">
        <ele>5.6</ele>
        <time>2020-06-13T14:35:18Z</time>
      </trkpt>
      <trkpt lat="51.221615047738" lon="4.492911719355">
        <ele>4.4</ele>
        <time>2020-06-13T14:35:41Z</time>
      </trkpt>
      <trkpt lat="51.221653353021" lon="4.492183835159">
        <ele>6.8</ele>
        <time>2020-06-13T14:35:59Z</time>
      </trkpt>
      <trkpt lat="51.221497952595" lon="4.491363833882">
        <ele>5</ele>
        <time>2020-06-13T14:36:13Z</time>
      </trkpt>
      <trkpt lat="51.221333751174" lon="4.490517681077">
        <ele>5.6</ele>
        <time>2020-06-13T14:36:30Z</time>
      </trkpt>
      <trkpt lat="51.221154043238" lon="4.489674964851">
        <ele>7.8</ele>
        <time>2020-06-13T14:36:48Z</time>
      </trkpt>
      <trkpt lat="51.220975508768" lon="4.488801906147">
        <ele>7</ele>
        <time>2020-06-13T14:37:05Z</time>
      </trkpt>
      <trkpt lat="51.220800494696" lon="4.487951394754">
        <ele>7.6</ele>
        <time>2020-06-13T14:37:19Z</time>
      </trkpt>
      <trkpt lat="51.220728745632" lon="4.487661297195">
        <ele>7.6</ele>
        <time>2020-06-13T14:37:24Z</time>
      </trkpt>
      <trkpt lat="51.220679376241" lon="4.487444792718">
        <ele>6.4</ele>
        <time>2020-06-13T14:37:29Z</time>
      </trkpt>
      <trkpt lat="51.220518359942" lon="4.486600483931">
        <ele>6.6</ele>
        <time>2020-06-13T14:37:49Z</time>
      </trkpt>
      <trkpt lat="51.220434792399" lon="4.48574477576">
        <ele>5.2</ele>
        <time>2020-06-13T14:38:09Z</time>
      </trkpt>
      <trkpt lat="51.220243517441" lon="4.484938520799">
        <ele>5</ele>
        <time>2020-06-13T14:38:25Z</time>
      </trkpt>
      <trkpt lat="51.220056349614" lon="4.484107287776">
        <ele>2.8</ele>
        <time>2020-06-13T14:38:41Z</time>
      </trkpt>
      <trkpt lat="51.219908241441" lon="4.483228445561">
        <ele>5.6</ele>
        <time>2020-06-13T14:38:57Z</time>
      </trkpt>
      <trkpt lat="51.21974487821" lon="4.482411797044">
        <ele>5</ele>
        <time>2020-06-13T14:39:13Z</time>
      </trkpt>
      <trkpt lat="51.219597608227" lon="4.481547204059">
        <ele>5.6</ele>
        <time>2020-06-13T14:39:29Z</time>
      </trkpt>
      <trkpt lat="51.21940373488" lon="4.481037752177">
        <ele>4.4</ele>
        <time>2020-06-13T14:39:45Z</time>
      </trkpt>
      <trkpt lat="51.219426114553" lon="4.481026771888">
        <ele>1.6</ele>
        <time>2020-06-13T14:40:56Z</time>
      </trkpt>
      <trkpt lat="51.219418319386" lon="4.480990394442">
        <ele>1.6</ele>
        <time>2020-06-13T14:40:58Z</time>
      </trkpt>
      <trkpt lat="51.219343552838" lon="4.480760227468">
        <ele>1.4</ele>
        <time>2020-06-13T14:41:05Z</time>
      </trkpt>
      <trkpt lat="51.218822701572" lon="4.480954939005">
        <ele>0</ele>
        <time>2020-06-13T14:41:21Z</time>
      </trkpt>
      <trkpt lat="51.218285086506" lon="4.481216621923">
        <ele>0</ele>
        <time>2020-06-13T14:41:36Z</time>
      </trkpt>
      <trkpt lat="51.217718302428" lon="4.481525662576">
        <ele>0</ele>
        <time>2020-06-13T14:41:51Z</time>
      </trkpt>
      <trkpt lat="51.217193595488" lon="4.48180360638">
        <ele>0</ele>
        <time>2020-06-13T14:42:09Z</time>
      </trkpt>
      <trkpt lat="51.217056383785" lon="4.481781142888">
        <ele>0</ele>
        <time>2020-06-13T14:42:13Z</time>
      </trkpt>
      <trkpt lat="51.21699729139" lon="4.481377386765">
        <ele>0</ele>
        <time>2020-06-13T14:42:22Z</time>
      </trkpt>
      <trkpt lat="51.21699561501" lon="4.481408902709">
        <ele>0</ele>
        <time>2020-06-13T14:44:14Z</time>
      </trkpt>
      <trkpt lat="51.217021850357" lon="4.481344948812">
        <ele>0</ele>
        <time>2020-06-13T14:44:20Z</time>
      </trkpt>
      <trkpt lat="51.21706853754" lon="4.480469710814">
        <ele>0</ele>
        <time>2020-06-13T14:44:39Z</time>
      </trkpt>
      <trkpt lat="51.217118661302" lon="4.479597657938">
        <ele>2.8</ele>
        <time>2020-06-13T14:44:55Z</time>
      </trkpt>
      <trkpt lat="51.217182112285" lon="4.478718145171">
        <ele>3</ele>
        <time>2020-06-13T14:45:11Z</time>
      </trkpt>
      <trkpt lat="51.217209940193" lon="4.477831843065">
        <ele>3.4</ele>
        <time>2020-06-13T14:45:26Z</time>
      </trkpt>
      <trkpt lat="51.217241456137" lon="4.476987701916">
        <ele>1.2</ele>
        <time>2020-06-13T14:45:44Z</time>
      </trkpt>
      <trkpt lat="51.217338769996" lon="4.476127551338">
        <ele>2.8</ele>
        <time>2020-06-13T14:46:04Z</time>
      </trkpt>
      <trkpt lat="51.217368525741" lon="4.475256839566">
        <ele>5.8</ele>
        <time>2020-06-13T14:46:21Z</time>
      </trkpt>
      <trkpt lat="51.21740381354" lon="4.474352516375">
        <ele>4.2</ele>
        <time>2020-06-13T14:46:36Z</time>
      </trkpt>
      <trkpt lat="51.217441615909" lon="4.47347786511">
        <ele>3.4</ele>
        <time>2020-06-13T14:46:51Z</time>
      </trkpt>
      <trkpt lat="51.21743901752" lon="4.472613775039">
        <ele>6.2</ele>
        <time>2020-06-13T14:47:07Z</time>
      </trkpt>
      <trkpt lat="51.217479166821" lon="4.471716492644">
        <ele>6.8</ele>
        <time>2020-06-13T14:47:24Z</time>
      </trkpt>
      <trkpt lat="51.217504312521" lon="4.470830106719">
        <ele>4.8</ele>
        <time>2020-06-13T14:47:39Z</time>
      </trkpt>
      <trkpt lat="51.21752032195" lon="4.469953108522">
        <ele>7</ele>
        <time>2020-06-13T14:47:54Z</time>
      </trkpt>
      <trkpt lat="51.217550832066" lon="4.469072757565">
        <ele>1.2</ele>
        <time>2020-06-13T14:48:10Z</time>
      </trkpt>
      <trkpt lat="51.217611433203" lon="4.468210343874">
        <ele>2</ele>
        <time>2020-06-13T14:48:28Z</time>
      </trkpt>
      <trkpt lat="51.217674213634" lon="4.467337955722">
        <ele>1.8</ele>
        <time>2020-06-13T14:48:43Z</time>
      </trkpt>
      <trkpt lat="51.217727941613" lon="4.466450563969">
        <ele>0.4</ele>
        <time>2020-06-13T14:49:04Z</time>
      </trkpt>
      <trkpt lat="51.217755937159" lon="4.465566357338">
        <ele>0.8</ele>
        <time>2020-06-13T14:49:25Z</time>
      </trkpt>
      <trkpt lat="51.217796673193" lon="4.46470453038">
        <ele>4.2</ele>
        <time>2020-06-13T14:49:42Z</time>
      </trkpt>
      <trkpt lat="51.217811341518" lon="4.463838428653">
        <ele>6.8</ele>
        <time>2020-06-13T14:50:04Z</time>
      </trkpt>
      <trkpt lat="51.217875882148" lon="4.462956568954">
        <ele>0</ele>
        <time>2020-06-13T14:50:23Z</time>
      </trkpt>
      <trkpt lat="51.217899602925" lon="4.462085521906">
        <ele>1.4</ele>
        <time>2020-06-13T14:50:38Z</time>
      </trkpt>
      <trkpt lat="51.217933381982" lon="4.461261078222">
        <ele>0.2</ele>
        <time>2020-06-13T14:50:59Z</time>
      </trkpt>
      <trkpt lat="51.217973698921" lon="4.460417942901">
        <ele>0</ele>
        <time>2020-06-13T14:51:19Z</time>
      </trkpt>
      <trkpt lat="51.218044274519" lon="4.4595563674">
        <ele>0</ele>
        <time>2020-06-13T14:51:39Z</time>
      </trkpt>
      <trkpt lat="51.218070928961" lon="4.45867040057">
        <ele>0</ele>
        <time>2020-06-13T14:51:57Z</time>
      </trkpt>
      <trkpt lat="51.218119460162" lon="4.45776766994">
        <ele>4.6</ele>
        <time>2020-06-13T14:52:15Z</time>
      </trkpt>
      <trkpt lat="51.218155586151" lon="4.456866699509">
        <ele>2.2</ele>
        <time>2020-06-13T14:52:32Z</time>
      </trkpt>
      <trkpt lat="51.218212834528" lon="4.456007638578">
        <ele>5</ele>
        <time>2020-06-13T14:52:48Z</time>
      </trkpt>
      <trkpt lat="51.21825457639" lon="4.455149415837">
        <ele>3.6</ele>
        <time>2020-06-13T14:53:08Z</time>
      </trkpt>
      <trkpt lat="51.218251391268" lon="4.454272752916">
        <ele>9</ele>
        <time>2020-06-13T14:53:25Z</time>
      </trkpt>
      <trkpt lat="51.218310148387" lon="4.453379158557">
        <ele>0.8</ele>
        <time>2020-06-13T14:53:41Z</time>
      </trkpt>
      <trkpt lat="51.218320039029" lon="4.452506602767">
        <ele>1.2</ele>
        <time>2020-06-13T14:53:57Z</time>
      </trkpt>
      <trkpt lat="51.218523467742" lon="4.451833703835">
        <ele>0</ele>
        <time>2020-06-13T14:54:15Z</time>
      </trkpt>
      <trkpt lat="51.218783055185" lon="4.45176036221">
        <ele>0</ele>
        <time>2020-06-13T14:54:21Z</time>
      </trkpt>
      <trkpt lat="51.219245819884" lon="4.452129836362">
        <ele>3.8</ele>
        <time>2020-06-13T14:54:45Z</time>
      </trkpt>
      <trkpt lat="51.219797097447" lon="4.452089016509">
        <ele>5.2</ele>
        <time>2020-06-13T14:55:07Z</time>
      </trkpt>
      <trkpt lat="51.220364719715" lon="4.452037719281">
        <ele>7.6</ele>
        <time>2020-06-13T14:55:27Z</time>
      </trkpt>
      <trkpt lat="51.22089571308" lon="4.45186513596">
        <ele>12</ele>
        <time>2020-06-13T14:55:45Z</time>
      </trkpt>
      <trkpt lat="51.221454701991" lon="4.45173940746">
        <ele>4.2</ele>
        <time>2020-06-13T14:56:03Z</time>
      </trkpt>
      <trkpt lat="51.221964992063" lon="4.451433803386">
        <ele>3</ele>
        <time>2020-06-13T14:56:15Z</time>
      </trkpt>
      <trkpt lat="51.222476204144" lon="4.45117027645">
        <ele>0</ele>
        <time>2020-06-13T14:56:28Z</time>
      </trkpt>
      <trkpt lat="51.223020021816" lon="4.451160637265">
        <ele>0</ele>
        <time>2020-06-13T14:56:46Z</time>
      </trkpt>
      <trkpt lat="51.223565934963" lon="4.451347385997">
        <ele>0</ele>
        <time>2020-06-13T14:57:02Z</time>
      </trkpt>
      <trkpt lat="51.223916633659" lon="4.451428019875">
        <ele>0</ele>
        <time>2020-06-13T14:57:11Z</time>
      </trkpt>
      <trkpt lat="51.224085445125" lon="4.45136557472">
        <ele>0</ele>
        <time>2020-06-13T14:57:15Z</time>
      </trkpt>
      <trkpt lat="51.224498002243" lon="4.450800718479">
        <ele>0</ele>
        <time>2020-06-13T14:57:30Z</time>
      </trkpt>
      <trkpt lat="51.224898321787" lon="4.450166041011">
        <ele>0</ele>
        <time>2020-06-13T14:57:45Z</time>
      </trkpt>
      <trkpt lat="51.225242734058" lon="4.449806625139">
        <ele>0</ele>
        <time>2020-06-13T14:57:58Z</time>
      </trkpt>
      <trkpt lat="51.225806081557" lon="4.449699504457">
        <ele>0</ele>
        <time>2020-06-13T14:58:13Z</time>
      </trkpt>
      <trkpt lat="51.226223919272" lon="4.449150406188">
        <ele>0</ele>
        <time>2020-06-13T14:58:30Z</time>
      </trkpt>
      <trkpt lat="51.226344953908" lon="4.448911019124">
        <ele>0</ele>
        <time>2020-06-13T14:58:37Z</time>
      </trkpt>
      <trkpt lat="51.226394574756" lon="4.448947145113">
        <ele>0</ele>
        <time>2020-06-13T14:58:39Z</time>
      </trkpt>
      <trkpt lat="51.226631363431" lon="4.449384345017">
        <ele>0</ele>
        <time>2020-06-13T14:58:50Z</time>
      </trkpt>
      <trkpt lat="51.227041992712" lon="4.448828876504">
        <ele>0</ele>
        <time>2020-06-13T14:59:09Z</time>
      </trkpt>
      <trkpt lat="51.22740928757" lon="4.44820811299">
        <ele>0</ele>
        <time>2020-06-13T14:59:27Z</time>
      </trkpt>
      <trkpt lat="51.22778982583" lon="4.447542841587">
        <ele>0</ele>
        <time>2020-06-13T14:59:44Z</time>
      </trkpt>
      <trkpt lat="51.228150079892" lon="4.447062893993">
        <ele>0</ele>
        <time>2020-06-13T14:59:59Z</time>
      </trkpt>
      <trkpt lat="51.228263906094" lon="4.447231118726">
        <ele>0</ele>
        <time>2020-06-13T15:00:13Z</time>
      </trkpt>
      <trkpt lat="51.228633464065" lon="4.447883984917">
        <ele>0</ele>
        <time>2020-06-13T15:00:31Z</time>
      </trkpt>
      <trkpt lat="51.229002183846" lon="4.448534001262">
        <ele>0</ele>
        <time>2020-06-13T15:00:52Z</time>
      </trkpt>
      <trkpt lat="51.229055073635" lon="4.448650509672">
        <ele>1.4</ele>
        <time>2020-06-13T15:00:55Z</time>
      </trkpt>
      <trkpt lat="51.228911994602" lon="4.448752852671">
        <ele>4</ele>
        <time>2020-06-13T15:01:06Z</time>
      </trkpt>
      <trkpt lat="51.228870755654" lon="4.448761066933">
        <ele>10.4</ele>
        <time>2020-06-13T15:01:48Z</time>
      </trkpt>
      <trkpt lat="51.228843346841" lon="4.448819321138">
        <ele>10.2</ele>
        <time>2020-06-13T15:01:51Z</time>
      </trkpt>
      <trkpt lat="51.22851402199" lon="4.449253671196">
        <ele>0</ele>
        <time>2020-06-13T15:02:10Z</time>
      </trkpt>
    </trkseg>
  </trk>
</gpx>